Time;durP1;ratioP1;P1;durP2;ratioP2;P2;SDS_P1;SDS_P2;PMS_P1;PMS_P2;Temp;Humidity;BMP_temperature;BMP_pressure;BME280_temperature;BME280_humidity;BME280_pressure;Samples;Min_cycle;Max_cycle;Signal;HPM_P1;HPM_P2
2022/12/02 00:00:43;;;;;;;50.00;18.98;;;;;;;;;;5071337;28;20125;-77
2022/12/02 00:03:12;;;;;;;49.28;18.98;;;;;;;;;;5056678;28;20029;-78
2022/12/02 00:05:38;;;;;;;51.47;19.60;;;;;;;;;;5061676;28;20037;-78
2022/12/02 00:08:21;;;;;;;48.75;18.75;;;;;;;;;;5035662;28;20486;-78
2022/12/02 00:10:47;;;;;;;53.28;20.10;;;;;;;;;;5072809;28;20539;-77
2022/12/02 00:13:13;;;;;;;48.92;19.45;;;;;;;;;;5074617;28;20123;-77
2022/12/02 00:15:41;;;;;;;50.08;19.17;;;;;;;;;;5075178;28;20370;-77
2022/12/02 00:18:15;;;;;;;50.20;19.15;;;;;;;;;;5074460;28;20041;-77
2022/12/02 00:20:42;;;;;;;47.88;18.90;;;;;;;;;;5074919;28;20070;-77
2022/12/02 00:23:08;;;;;;;50.40;19.98;;;;;;;;;;5074668;28;20047;-77
2022/12/02 00:25:35;;;;;;;48.25;18.77;;;;;;;;;;5074823;28;20037;-78
2022/12/02 00:28:01;;;;;;;51.55;18.92;;;;;;;;;;5074917;28;20047;-78
2022/12/02 00:30:27;;;;;;;51.15;18.92;;;;;;;;;;5054272;28;20134;-77
2022/12/02 00:32:54;;;;;;;54.88;19.30;;;;;;;;;;5055271;28;20045;-77
2022/12/02 00:35:20;;;;;;;57.95;20.75;;;;;;;;;;5052089;28;20036;-78
2022/12/02 00:37:47;;;;;;;53.13;20.73;;;;;;;;;;5054175;28;20052;-78
2022/12/02 00:40:13;;;;;;;49.72;19.52;;;;;;;;;;5037473;28;20083;-78
2022/12/02 00:42:39;;;;;;;54.20;19.92;;;;;;;;;;5054835;28;20550;-78
2022/12/02 00:47:52;;;;;;;53.95;20.15;;;;;;;;;;5054187;28;20131;-78
2022/12/02 00:50:18;;;;;;;55.60;20.40;;;;;;;;;;5037342;28;20116;-78
2022/12/02 00:52:44;;;;;;;54.92;20.65;;;;;;;;;;5054286;28;20033;-77
2022/12/02 00:55:10;;;;;;;61.42;22.25;;;;;;;;;;5037550;28;20494;-78
2022/12/02 00:57:36;;;;;;;55.67;20.52;;;;;;;;;;5037871;28;20044;-78
2022/12/02 01:00:04;;;;;;;59.92;21.55;;;;;;;;;;5073454;28;20037;-77
2022/12/02 01:02:30;;;;;;;54.75;21.17;;;;;;;;;;5073644;28;20055;-78
2022/12/02 01:04:56;;;;;;;57.75;22.30;;;;;;;;;;5074968;28;20440;-77
2022/12/02 01:07:22;;;;;;;62.55;20.77;;;;;;;;;;5073260;28;20151;-78
2022/12/02 01:09:48;;;;;;;55.10;20.75;;;;;;;;;;5071756;28;20098;-78
2022/12/02 01:12:14;;;;;;;53.97;20.73;;;;;;;;;;5061393;28;20036;-78
2022/12/02 01:14:40;;;;;;;61.25;21.15;;;;;;;;;;5063659;28;20159;-78
2022/12/02 01:17:07;;;;;;;58.22;20.90;;;;;;;;;;5070159;28;20041;-78
2022/12/02 01:19:33;;;;;;;51.38;19.75;;;;;;;;;;5058260;28;20040;-78
2022/12/02 01:21:59;;;;;;;58.47;20.48;;;;;;;;;;5068449;28;20040;-77
2022/12/02 01:24:25;;;;;;;55.30;20.70;;;;;;;;;;5036590;28;20072;-77
2022/12/02 01:26:51;;;;;;;55.03;20.13;;;;;;;;;;5074160;28;20036;-78
2022/12/02 01:29:17;;;;;;;53.28;20.35;;;;;;;;;;5073047;28;20106;-77
2022/12/02 01:31:43;;;;;;;59.33;20.85;;;;;;;;;;5053595;28;20128;-77
2022/12/02 01:34:09;;;;;;;55.28;20.23;;;;;;;;;;5062398;28;20138;-78
2022/12/02 01:36:35;;;;;;;56.17;20.50;;;;;;;;;;5072966;28;20041;-78
2022/12/02 01:39:01;;;;;;;57.33;20.48;;;;;;;;;;5073108;28;20040;-78
2022/12/02 01:41:27;;;;;;;58.35;20.77;;;;;;;;;;5073074;28;20048;-78
2022/12/02 01:43:53;;;;;;;55.95;20.45;;;;;;;;;;5074431;28;20036;-78
2022/12/02 01:46:19;;;;;;;55.20;20.05;;;;;;;;;;5045317;28;20045;-78
2022/12/02 01:48:45;;;;;;;62.92;21.83;;;;;;;;;;5067683;28;20521;-78
2022/12/02 01:51:11;;;;;;;58.88;21.42;;;;;;;;;;5062246;28;20048;-78
2022/12/02 01:53:38;;;;;;;55.35;20.45;;;;;;;;;;5058459;28;20052;-78
2022/12/02 01:56:04;;;;;;;60.50;19.38;;;;;;;;;;5056232;28;20033;-78
2022/12/02 01:58:30;;;;;;;60.45;21.15;;;;;;;;;;5072760;28;20048;-78
2022/12/02 02:01:03;;;;;;;56.03;20.67;;;;;;;;;;5073000;28;20481;-78
2022/12/02 02:03:29;;;;;;;55.58;19.92;;;;;;;;;;5072833;28;20032;-78
2022/12/02 02:05:55;;;;;;;57.92;20.75;;;;;;;;;;5072762;28;20036;-77
2022/12/02 02:08:22;;;;;;;55.83;19.80;;;;;;;;;;5072055;28;20041;-78
2022/12/02 02:10:48;;;;;;;55.70;21.10;;;;;;;;;;5072877;28;20494;-77
2022/12/02 02:13:15;;;;;;;58.70;21.05;;;;;;;;;;5072950;28;20509;-78
2022/12/02 02:15:42;;;;;;;57.83;20.08;;;;;;;;;;5061991;28;20445;-78
2022/12/02 02:18:08;;;;;;;58.58;20.20;;;;;;;;;;5036068;28;20037;-78
2022/12/02 02:20:38;;;;;;;56.13;20.67;;;;;;;;;;5051990;28;20052;-78
2022/12/02 02:23:07;;;;;;;57.35;20.63;;;;;;;;;;5052409;28;20530;-77
2022/12/02 02:25:37;;;;;;;53.60;20.17;;;;;;;;;;5062953;28;20051;-77
2022/12/02 02:28:03;;;;;;;52.58;20.05;;;;;;;;;;5072422;28;20046;-78
2022/12/02 02:30:31;;;;;;;54.28;19.90;;;;;;;;;;5072031;28;20087;-78
2022/12/02 02:32:58;;;;;;;54.10;20.65;;;;;;;;;;5071303;28;20516;-78
2022/12/02 02:35:24;;;;;;;48.95;18.77;;;;;;;;;;5059700;28;20184;-78
2022/12/02 02:37:51;;;;;;;49.17;19.23;;;;;;;;;;5072367;28;20119;-78
2022/12/02 02:40:18;;;;;;;50.33;19.15;;;;;;;;;;5072377;28;20048;-78
2022/12/02 02:42:50;;;;;;;49.63;19.27;;;;;;;;;;5072455;28;20094;-78
2022/12/02 02:45:16;;;;;;;52.75;19.08;;;;;;;;;;5072161;28;20044;-78
2022/12/02 02:47:42;;;;;;;49.45;19.02;;;;;;;;;;5071772;28;20044;-78
2022/12/02 02:50:08;;;;;;;54.10;19.52;;;;;;;;;;5071505;28;20052;-78
2022/12/02 02:52:35;;;;;;;48.88;18.10;;;;;;;;;;5071838;28;20047;-78
2022/12/02 02:55:01;;;;;;;48.85;17.65;;;;;;;;;;5055192;28;20033;-78
2022/12/02 02:57:27;;;;;;;48.97;18.73;;;;;;;;;;5071496;28;20072;-77
2022/12/02 02:59:55;;;;;;;47.58;18.42;;;;;;;;;;5072429;28;20086;-78
2022/12/02 03:02:21;;;;;;;49.85;18.23;;;;;;;;;;5053338;28;20060;-78
2022/12/02 03:04:48;;;;;;;49.97;17.63;;;;;;;;;;5051374;28;20078;-78
2022/12/02 03:07:14;;;;;;;43.30;16.48;;;;;;;;;;5051519;28;20045;-78
2022/12/02 03:09:40;;;;;;;37.90;14.20;;;;;;;;;;5051338;28;20048;-78
2022/12/02 03:12:06;;;;;;;41.60;15.57;;;;;;;;;;5051729;28;20032;-78
2022/12/02 03:14:32;;;;;;;38.10;15.40;;;;;;;;;;5031842;28;20037;-78
2022/12/02 03:17:00;;;;;;;33.47;14.18;;;;;;;;;;5051951;28;20041;-78
2022/12/02 03:19:26;;;;;;;36.40;14.43;;;;;;;;;;5051993;28;20045;-78
2022/12/02 03:21:52;;;;;;;34.75;13.90;;;;;;;;;;5056162;28;20051;-78
2022/12/02 03:24:19;;;;;;;33.88;13.55;;;;;;;;;;5054912;28;20094;-77
2022/12/02 03:26:45;;;;;;;31.95;12.88;;;;;;;;;;5071319;28;20071;-78
2022/12/02 03:29:12;;;;;;;35.53;13.18;;;;;;;;;;5071704;28;20040;-77
2022/12/02 03:31:38;;;;;;;32.35;12.98;;;;;;;;;;5054950;28;20041;-77
2022/12/02 03:34:05;;;;;;;35.85;13.23;;;;;;;;;;5045351;28;20036;-78
2022/12/02 03:36:31;;;;;;;37.83;14.10;;;;;;;;;;5068414;28;20090;-78
2022/12/02 03:38:57;;;;;;;36.30;14.07;;;;;;;;;;5062556;28;20103;-78
2022/12/02 03:41:24;;;;;;;32.85;12.70;;;;;;;;;;5066089;28;20063;-78
2022/12/02 03:43:51;;;;;;;33.55;13.48;;;;;;;;;;5070748;28;20047;-78
2022/12/02 03:46:17;;;;;;;32.50;13.48;;;;;;;;;;5071326;28;20485;-78
2022/12/02 03:48:43;;;;;;;33.38;13.55;;;;;;;;;;5053527;28;20053;-78
2022/12/02 03:51:10;;;;;;;34.05;13.65;;;;;;;;;;5072311;28;20044;-78
2022/12/02 03:53:36;;;;;;;34.42;12.80;;;;;;;;;;5070504;28;20029;-77
2022/12/02 03:56:03;;;;;;;30.25;12.98;;;;;;;;;;5070780;28;20032;-78
2022/12/02 03:58:37;;;;;;;33.97;12.88;;;;;;;;;;5070729;28;20434;-78
2022/12/02 04:01:03;;;;;;;31.50;13.07;;;;;;;;;;5054159;28;20036;-77
2022/12/02 04:03:29;;;;;;;37.63;14.23;;;;;;;;;;5070930;28;20051;-77
2022/12/02 04:05:55;;;;;;;31.45;12.43;;;;;;;;;;5072341;28;20032;-77
2022/12/02 04:08:21;;;;;;;33.67;12.82;;;;;;;;;;5070902;28;20047;-78
2022/12/02 04:10:47;;;;;;;32.33;13.18;;;;;;;;;;5066577;28;20040;-77
2022/12/02 04:13:13;;;;;;;31.52;12.30;;;;;;;;;;5045611;28;20071;-78
2022/12/02 04:15:39;;;;;;;31.23;12.13;;;;;;;;;;5070506;28;20041;-78
2022/12/02 04:18:05;;;;;;;32.88;12.63;;;;;;;;;;5054024;28;20064;-77
2022/12/02 04:20:31;;;;;;;32.42;13.65;;;;;;;;;;5070332;28;20056;-77
2022/12/02 04:22:58;;;;;;;34.00;13.00;;;;;;;;;;5070839;28;20040;-77
2022/12/02 04:25:24;;;;;;;35.70;13.82;;;;;;;;;;5044643;28;20048;-77
2022/12/02 04:27:50;;;;;;;32.85;12.52;;;;;;;;;;5067233;28;20135;-77
2022/12/02 04:30:16;;;;;;;32.63;13.13;;;;;;;;;;5070864;28;20102;-77
2022/12/02 04:32:42;;;;;;;36.10;13.70;;;;;;;;;;5070450;28;20040;-77
2022/12/02 04:35:08;;;;;;;35.97;12.70;;;;;;;;;;5057769;28;20075;-77
2022/12/02 04:37:34;;;;;;;34.00;12.80;;;;;;;;;;5070352;28;20036;-77
2022/12/02 04:40:00;;;;;;;32.45;12.82;;;;;;;;;;5070803;28;20033;-77
2022/12/02 04:42:26;;;;;;;32.75;13.05;;;;;;;;;;5053922;28;20072;-77
2022/12/02 04:44:52;;;;;;;30.73;12.52;;;;;;;;;;5070860;28;20422;-77
2022/12/02 04:47:18;;;;;;;31.30;12.45;;;;;;;;;;5070901;28;20120;-77
2022/12/02 04:49:44;;;;;;;35.88;13.95;;;;;;;;;;5070932;28;20052;-78
2022/12/02 04:52:10;;;;;;;31.10;13.13;;;;;;;;;;5053983;28;20086;-77
2022/12/02 04:54:36;;;;;;;36.45;12.75;;;;;;;;;;5058236;28;20121;-78
2022/12/02 04:57:02;;;;;;;33.97;12.57;;;;;;;;;;5070202;28;20478;-78
2022/12/02 04:59:28;;;;;;;32.28;12.88;;;;;;;;;;5057574;28;20052;-78
2022/12/02 05:01:54;;;;;;;34.80;12.77;;;;;;;;;;5058438;28;20371;-78
2022/12/02 05:04:20;;;;;;;31.60;12.45;;;;;;;;;;5020864;28;20073;-78
2022/12/02 05:06:47;;;;;;;32.28;13.23;;;;;;;;;;5053609;28;20449;-78
2022/12/02 05:09:13;;;;;;;35.92;12.75;;;;;;;;;;5054231;28;20056;-77
2022/12/02 05:11:39;;;;;;;32.85;12.93;;;;;;;;;;5053442;28;20037;-77
2022/12/02 05:14:05;;;;;;;33.50;13.07;;;;;;;;;;5086977;28;20028;-77
2022/12/02 05:16:31;;;;;;;33.33;12.52;;;;;;;;;;5053476;28;20041;-77
2022/12/02 05:18:57;;;;;;;34.20;13.65;;;;;;;;;;5053504;28;20053;-77
2022/12/02 05:21:23;;;;;;;37.95;14.18;;;;;;;;;;5053725;28;20045;-77
2022/12/02 05:23:49;;;;;;;38.33;13.27;;;;;;;;;;5053259;28;20049;-77
2022/12/02 05:26:15;;;;;;;36.83;13.38;;;;;;;;;;5070240;28;20043;-77
2022/12/02 05:28:41;;;;;;;39.55;14.68;;;;;;;;;;5073509;28;20536;-77
2022/12/02 05:31:07;;;;;;;38.08;13.85;;;;;;;;;;5075306;28;20039;-78
2022/12/02 05:33:33;;;;;;;44.90;15.77;;;;;;;;;;5051731;28;20037;-77
2022/12/02 05:35:59;;;;;;;39.08;15.05;;;;;;;;;;5067608;28;20063;-78
2022/12/02 05:38:25;;;;;;;43.05;15.63;;;;;;;;;;5073279;28;20071;-78
2022/12/02 05:40:55;;;;;;;44.28;15.60;;;;;;;;;;5074760;28;20040;-77
2022/12/02 05:43:22;;;;;;;43.13;15.45;;;;;;;;;;5073397;28;20044;-77
2022/12/02 05:45:48;;;;;;;49.20;15.82;;;;;;;;;;5073269;28;20048;-77
2022/12/02 05:48:16;;;;;;;44.90;15.70;;;;;;;;;;5073598;28;20043;-76
2022/12/02 05:50:42;;;;;;;46.22;16.25;;;;;;;;;;5056377;28;20051;-78
2022/12/02 05:53:15;;;;;;;42.92;16.02;;;;;;;;;;5073483;28;20032;-77
2022/12/02 05:55:41;;;;;;;42.60;15.77;;;;;;;;;;5047099;28;20051;-78
2022/12/02 05:58:10;;;;;;;42.72;15.57;;;;;;;;;;5069097;28;20041;-78
2022/12/02 06:00:36;;;;;;;44.20;15.90;;;;;;;;;;5053219;28;20263;-77
2022/12/02 06:03:05;;;;;;;44.83;16.58;;;;;;;;;;5053342;28;20856;-78
2022/12/02 06:05:38;;;;;;;44.60;16.77;;;;;;;;;;5053595;28;20406;-78
2022/12/02 06:08:18;;;;;;;45.75;16.10;;;;;;;;;;5052945;28;20045;-78
2022/12/02 06:10:48;;;;;;;55.67;21.17;;;;;;;;;;5052594;28;20055;-78
2022/12/02 06:13:19;;;;;;;44.63;17.33;;;;;;;;;;5036444;28;20036;-78
2022/12/02 06:15:45;;;;;;;47.40;15.82;;;;;;;;;;5027641;28;20048;-78
2022/12/02 06:18:15;;;;;;;49.50;16.92;;;;;;;;;;5052498;28;20041;-78
2022/12/02 06:20:42;;;;;;;49.50;17.52;;;;;;;;;;5052421;28;20047;-78
2022/12/02 06:23:11;;;;;;;53.97;17.23;;;;;;;;;;5056925;28;20078;-78
2022/12/02 06:25:37;;;;;;;49.30;16.83;;;;;;;;;;5072825;28;20550;-78
2022/12/02 06:28:22;;;;;;;58.13;16.63;;;;;;;;;;5105869;28;20068;-78
2022/12/02 06:30:48;;;;;;;52.78;17.73;;;;;;;;;;5072079;28;20037;-78
2022/12/02 06:33:41;;;;;;;51.40;17.75;;;;;;;;;;5052847;28;20041;-78
2022/12/02 06:36:13;;;;;;;56.65;18.38;;;;;;;;;;5064271;28;20091;-78
2022/12/02 06:38:58;;;;;;;60.13;19.02;;;;;;;;;;5046546;28;20033;-78
2022/12/02 06:41:25;;;;;;;41.27;13.73;;;;;;;;;;5071878;28;20039;-78
2022/12/02 06:46:39;;;;;;;55.75;18.67;;;;;;;;;;5071996;28;20048;-77
2022/12/02 06:49:31;;;;;;;57.65;18.70;;;;;;;;;;5062953;28;20501;-78
2022/12/02 06:52:00;;;;;;;55.38;18.77;;;;;;;;;;5069262;28;20052;-77
2022/12/02 06:54:28;;;;;;;59.22;19.70;;;;;;;;;;5061459;28;20073;-78
2022/12/02 06:56:55;;;;;;;51.65;18.90;;;;;;;;;;5051492;28;20040;-78
2022/12/02 06:59:22;;;;;;;62.75;20.33;;;;;;;;;;5045813;28;20044;-78
2022/12/02 07:01:52;;;;;;;58.90;19.83;;;;;;;;;;5066730;28;20044;-78
2022/12/02 07:04:30;;;;;;;58.60;19.38;;;;;;;;;;5071703;28;20047;-78
2022/12/02 07:07:02;;;;;;;60.13;19.45;;;;;;;;;;5069808;28;20048;-78
2022/12/02 07:09:35;;;;;;;58.25;19.33;;;;;;;;;;5060136;28;20166;-78
2022/12/02 07:12:01;;;;;;;60.17;20.27;;;;;;;;;;5072702;28;20044;-78
2022/12/02 07:14:27;;;;;;;62.67;18.52;;;;;;;;;;5071372;28;20127;-78
2022/12/02 07:16:54;;;;;;;62.70;19.05;;;;;;;;;;5070812;28;20091;-78
2022/12/02 07:19:32;;;;;;;64.55;19.83;;;;;;;;;;5072180;28;20102;-78
2022/12/02 07:21:58;;;;;;;62.50;19.42;;;;;;;;;;5071366;28;20067;-78
2022/12/02 07:24:24;;;;;;;56.97;18.73;;;;;;;;;;5057484;28;20045;-78
2022/12/02 07:26:51;;;;;;;62.75;19.75;;;;;;;;;;5071381;28;20064;-77
2022/12/02 07:29:23;;;;;;;62.53;19.58;;;;;;;;;;5057417;28;20095;-78
2022/12/02 07:31:50;;;;;;;66.55;20.23;;;;;;;;;;5027715;28;20048;-77
2022/12/02 07:34:16;;;;;;;64.20;18.52;;;;;;;;;;5059859;28;20505;-77
2022/12/02 07:36:42;;;;;;;56.40;19.35;;;;;;;;;;5065523;28;20090;-78
2022/12/02 07:39:08;;;;;;;58.90;19.63;;;;;;;;;;5044966;28;20044;-78
2022/12/02 07:41:35;;;;;;;67.85;19.42;;;;;;;;;;5072697;28;20367;-77
2022/12/02 07:44:01;;;;;;;64.78;20.38;;;;;;;;;;5059811;28;20371;-78
2022/12/02 07:46:27;;;;;;;60.30;19.83;;;;;;;;;;5034586;28;20053;-78
2022/12/02 07:48:53;;;;;;;64.95;19.98;;;;;;;;;;5050752;28;20059;-77
2022/12/02 07:51:19;;;;;;;58.75;20.50;;;;;;;;;;5034152;28;20138;-77
2022/12/02 07:53:45;;;;;;;59.55;19.58;;;;;;;;;;5034885;28;20041;-77
2022/12/02 07:56:11;;;;;;;64.55;20.27;;;;;;;;;;5052049;28;20072;-78
2022/12/02 07:58:37;;;;;;;59.67;20.15;;;;;;;;;;5051237;28;20413;-78
2022/12/02 08:01:03;;;;;;;68.90;20.55;;;;;;;;;;5050893;28;20375;-78
2022/12/02 08:03:29;;;;;;;61.20;18.52;;;;;;;;;;5051231;28;20040;-78
2022/12/02 08:05:55;;;;;;;66.28;20.65;;;;;;;;;;5051171;28;20483;-78
2022/12/02 08:08:21;;;;;;;61.13;20.20;;;;;;;;;;5050937;28;20040;-78
2022/12/02 08:10:47;;;;;;;63.63;20.65;;;;;;;;;;5050987;28;20041;-78
2022/12/02 08:13:13;;;;;;;64.03;19.60;;;;;;;;;;5050765;28;20037;-78
2022/12/02 08:15:39;;;;;;;60.22;20.40;;;;;;;;;;5051456;28;20084;-78
2022/12/02 08:18:05;;;;;;;61.22;20.50;;;;;;;;;;5050548;28;20044;-78
2022/12/02 08:20:32;;;;;;;64.25;20.95;;;;;;;;;;5034565;28;20164;-78
2022/12/02 08:22:58;;;;;;;70.32;20.80;;;;;;;;;;5052565;28;20051;-78
2022/12/02 08:25:24;;;;;;;59.35;19.88;;;;;;;;;;5060283;28;20044;-77
2022/12/02 08:27:50;;;;;;;60.15;19.95;;;;;;;;;;5070643;28;20041;-77
2022/12/02 08:30:16;;;;;;;65.28;21.20;;;;;;;;;;5053740;28;20039;-78
2022/12/02 08:32:42;;;;;;;61.35;19.75;;;;;;;;;;5073781;28;20497;-77
2022/12/02 08:35:09;;;;;;;66.43;20.42;;;;;;;;;;5061227;28;20115;-78
2022/12/02 08:37:35;;;;;;;59.60;20.45;;;;;;;;;;5074745;28;20044;-78
2022/12/02 08:40:01;;;;;;;65.22;21.20;;;;;;;;;;5057971;28;20094;-78
2022/12/02 08:42:27;;;;;;;61.47;19.60;;;;;;;;;;5074975;28;20508;-78
2022/12/02 08:44:53;;;;;;;61.10;20.15;;;;;;;;;;5058388;28;20443;-78
2022/12/02 08:47:19;;;;;;;60.13;20.45;;;;;;;;;;5073995;28;20397;-78
2022/12/02 08:49:45;;;;;;;60.55;19.98;;;;;;;;;;5074416;28;20071;-78
2022/12/02 08:52:11;;;;;;;57.50;19.65;;;;;;;;;;5074201;28;20492;-78
2022/12/02 08:54:39;;;;;;;51.42;17.17;;;;;;;;;;5057849;28;20098;-78
2022/12/02 08:57:06;;;;;;;57.85;19.73;;;;;;;;;;5059710;28;20072;-78
2022/12/02 08:59:32;;;;;;;57.95;20.20;;;;;;;;;;5075528;28;20397;-78
2022/12/02 09:01:58;;;;;;;57.47;19.33;;;;;;;;;;5071412;28;20044;-79
2022/12/02 09:04:24;;;;;;;39.78;13.75;;;;;;;;;;5045836;28;20581;-79
2022/12/02 09:06:50;;;;;;;55.47;18.52;;;;;;;;;;5074075;28;20089;-78
2022/12/02 09:09:16;;;;;;;48.55;15.43;;;;;;;;;;5056904;28;20040;-79
2022/12/02 09:11:42;;;;;;;58.28;17.38;;;;;;;;;;5057338;28;20040;-78
2022/12/02 09:14:08;;;;;;;59.30;19.45;;;;;;;;;;5055028;28;20029;-78
2022/12/02 09:16:34;;;;;;;61.67;19.80;;;;;;;;;;5065939;28;20468;-78
2022/12/02 09:19:00;;;;;;;59.60;18.40;;;;;;;;;;5073839;28;20047;-78
2022/12/02 09:21:26;;;;;;;71.72;20.83;;;;;;;;;;5073273;28;20048;-78
2022/12/02 09:23:52;;;;;;;64.82;19.85;;;;;;;;;;5057196;28;20075;-78
2022/12/02 09:26:19;;;;;;;61.50;19.95;;;;;;;;;;5070378;28;20076;-78
2022/12/02 09:28:45;;;;;;;64.43;19.42;;;;;;;;;;5063223;28;20115;-78
2022/12/02 09:31:11;;;;;;;57.75;18.42;;;;;;;;;;5073607;28;20033;-78
2022/12/02 09:33:37;;;;;;;60.03;20.05;;;;;;;;;;5049592;28;20037;-78
2022/12/02 09:36:04;;;;;;;60.42;19.25;;;;;;;;;;5050401;28;20079;-77
2022/12/02 09:38:31;;;;;;;47.70;14.75;;;;;;;;;;5072998;28;20033;-78
2022/12/02 09:40:58;;;;;;;64.93;19.67;;;;;;;;;;5073763;28;20060;-78
2022/12/02 09:43:24;;;;;;;61.90;18.13;;;;;;;;;;5041931;28;20047;-78
2022/12/02 09:45:50;;;;;;;69.93;20.98;;;;;;;;;;5056833;28;20044;-77
2022/12/02 09:48:16;;;;;;;66.97;20.48;;;;;;;;;;5074121;28;20048;-77
2022/12/02 09:50:42;;;;;;;55.55;18.52;;;;;;;;;;5073067;28;20054;-78
2022/12/02 09:53:11;;;;;;;59.50;19.48;;;;;;;;;;5073219;28;20124;-78
2022/12/02 09:55:37;;;;;;;61.63;19.55;;;;;;;;;;5056774;28;20051;-78
2022/12/02 09:58:14;;;;;;;58.78;18.92;;;;;;;;;;5074318;28;20032;-78
2022/12/02 10:00:40;;;;;;;63.40;19.27;;;;;;;;;;5058973;28;20550;-76
2022/12/02 10:03:07;;;;;;;60.75;18.48;;;;;;;;;;5061108;28;20043;-77
2022/12/02 10:05:33;;;;;;;56.65;18.55;;;;;;;;;;5066314;28;20041;-77
2022/12/02 10:07:59;;;;;;;50.20;16.40;;;;;;;;;;5062778;28;20040;-77
2022/12/02 10:10:38;;;;;;;55.38;18.30;;;;;;;;;;5072168;28;20052;-77
2022/12/02 10:13:04;;;;;;;47.38;15.40;;;;;;;;;;5072804;28;20497;-76
2022/12/02 10:15:33;;;;;;;54.65;18.40;;;;;;;;;;5053767;28;20048;-77
2022/12/02 10:18:08;;;;;;;58.03;18.75;;;;;;;;;;5053069;28;20033;-76
2022/12/02 10:20:34;;;;;;;53.30;18.20;;;;;;;;;;5084533;28;20048;-77
2022/12/02 10:23:19;;;;;;;54.65;19.23;;;;;;;;;;5068892;28;20041;-77
2022/12/02 10:25:50;;;;;;;38.65;14.00;;;;;;;;;;5052778;28;20045;-77
2022/12/02 10:28:21;;;;;;;51.55;16.63;;;;;;;;;;5054740;28;20070;-76
2022/12/02 10:30:55;;;;;;;49.40;17.70;;;;;;;;;;5055959;28;20048;-77
2022/12/02 10:33:26;;;;;;;51.03;17.05;;;;;;;;;;5051389;28;20037;-77
2022/12/02 10:35:53;;;;;;;52.20;17.42;;;;;;;;;;5063906;28;20115;-77
2022/12/02 10:38:28;;;;;;;47.15;15.95;;;;;;;;;;5071909;28;20051;-77
2022/12/02 10:41:10;;;;;;;49.80;17.55;;;;;;;;;;5072337;28;20093;-76
2022/12/02 10:43:37;;;;;;;51.97;17.35;;;;;;;;;;5055119;28;20049;-77
2022/12/02 10:46:03;;;;;;;51.50;16.85;;;;;;;;;;5055773;28;20162;-76
2022/12/02 10:48:29;;;;;;;48.88;16.95;;;;;;;;;;5055030;28;20037;-77
2022/12/02 10:50:55;;;;;;;48.42;15.93;;;;;;;;;;5071689;28;20049;-76
2022/12/02 10:53:25;;;;;;;48.67;17.08;;;;;;;;;;5071016;28;20140;-77
2022/12/02 10:55:51;;;;;;;47.53;16.27;;;;;;;;;;5071491;28;20040;-77
2022/12/02 10:58:22;;;;;;;46.53;15.48;;;;;;;;;;5071698;28;20519;-77
2022/12/02 11:00:48;;;;;;;44.83;15.30;;;;;;;;;;5055094;28;20044;-77
2022/12/02 11:03:14;;;;;;;48.85;16.00;;;;;;;;;;5055166;28;20063;-77
2022/12/02 11:05:41;;;;;;;48.47;15.25;;;;;;;;;;5054533;28;20043;-77
2022/12/02 11:08:16;;;;;;;48.65;14.85;;;;;;;;;;5071602;28;20119;-77
2022/12/02 11:10:44;;;;;;;50.33;15.80;;;;;;;;;;5057083;28;20086;-77
2022/12/02 11:13:13;;;;;;;46.60;16.05;;;;;;;;;;5061290;28;20374;-77
2022/12/02 11:15:47;;;;;;;40.10;13.82;;;;;;;;;;5065153;28;20041;-77
2022/12/02 11:18:22;;;;;;;50.35;16.77;;;;;;;;;;5062014;28;20098;-77
2022/12/02 11:20:52;;;;;;;50.05;15.60;;;;;;;;;;5071379;28;20036;-77
2022/12/02 11:23:20;;;;;;;52.60;16.80;;;;;;;;;;5065493;28;20375;-78
2022/12/02 11:25:47;;;;;;;45.45;15.75;;;;;;;;;;5064335;28;20533;-77
2022/12/02 11:28:28;;;;;;;54.60;16.05;;;;;;;;;;5071489;28;20062;-76
2022/12/02 11:31:10;;;;;;;50.05;17.15;;;;;;;;;;5058436;28;20045;-77
2022/12/02 11:33:48;;;;;;;41.30;14.73;;;;;;;;;;5039016;28;20037;-77
2022/12/02 11:36:16;;;;;;;47.40;16.92;;;;;;;;;;5065864;28;20068;-77
2022/12/02 11:39:00;;;;;;;44.15;15.70;;;;;;;;;;5071214;28;20879;-77
2022/12/02 11:41:27;;;;;;;37.80;14.00;;;;;;;;;;5054099;28;20443;-77
2022/12/02 11:43:55;;;;;;;44.90;16.70;;;;;;;;;;5071504;28;20036;-77
2022/12/02 11:46:22;;;;;;;46.60;16.38;;;;;;;;;;5071645;28;20495;-77
2022/12/02 11:48:51;;;;;;;46.05;14.55;;;;;;;;;;5064645;28;20039;-77
2022/12/02 11:51:30;;;;;;;39.33;15.23;;;;;;;;;;5047185;28;20398;-77
2022/12/02 11:53:57;;;;;;;48.97;15.85;;;;;;;;;;5037732;28;20409;-77
2022/12/02 11:56:26;;;;;;;36.45;13.27;;;;;;;;;;5063877;28;20504;-78
2022/12/02 11:58:52;;;;;;;38.47;12.52;;;;;;;;;;5070870;28;20076;-78
2022/12/02 12:01:18;;;;;;;46.33;16.02;;;;;;;;;;5071117;28;20120;-77
2022/12/02 12:03:45;;;;;;;45.58;16.52;;;;;;;;;;5068953;28;20068;-77
2022/12/02 12:06:16;;;;;;;46.67;16.52;;;;;;;;;;5062595;28;20040;-77
2022/12/02 12:08:43;;;;;;;34.03;11.40;;;;;;;;;;5074648;28;20037;-77
2022/12/02 12:11:28;;;;;;;50.30;17.00;;;;;;;;;;5066758;28;20073;-77
2022/12/02 12:13:57;;;;;;;43.92;16.40;;;;;;;;;;5057628;28;20091;-78
2022/12/02 12:16:23;;;;;;;49.53;16.73;;;;;;;;;;5065642;28;20056;-77
2022/12/02 12:18:49;;;;;;;53.17;19.08;;;;;;;;;;5069622;28;20063;-78
2022/12/02 12:21:31;;;;;;;56.15;19.27;;;;;;;;;;5075136;28;20405;-76
2022/12/02 12:26:42;;;;;;;57.15;19.48;;;;;;;;;;5048050;28;20455;-77
2022/12/02 12:29:09;;;;;;;57.65;20.50;;;;;;;;;;5075815;28;20086;-77
2022/12/02 12:31:35;;;;;;;56.38;19.63;;;;;;;;;;5060218;28;20040;-78
2022/12/02 12:34:01;;;;;;;55.72;19.58;;;;;;;;;;5074620;28;20036;-78
2022/12/02 12:36:27;;;;;;;59.40;20.92;;;;;;;;;;5071360;28;20041;-77
2022/12/02 12:38:53;;;;;;;59.05;20.67;;;;;;;;;;5062990;28;20366;-78
2022/12/02 12:41:19;;;;;;;63.35;21.33;;;;;;;;;;5057091;28;20457;-78
2022/12/02 12:43:45;;;;;;;62.10;20.98;;;;;;;;;;5094696;28;20524;-77
2022/12/02 12:46:11;;;;;;;55.42;20.52;;;;;;;;;;5061917;28;20036;-78
2022/12/02 12:48:37;;;;;;;52.70;18.15;;;;;;;;;;5059786;28;20102;-78
2022/12/02 12:51:04;;;;;;;57.78;21.58;;;;;;;;;;5075408;28;20059;-78
2022/12/02 12:53:30;;;;;;;55.45;19.42;;;;;;;;;;5071914;28;20055;-78
2022/12/02 12:55:56;;;;;;;56.03;20.95;;;;;;;;;;5046543;28;20481;-77
2022/12/02 12:58:22;;;;;;;63.00;21.65;;;;;;;;;;5073636;28;20489;-78
2022/12/02 13:00:48;;;;;;;63.08;22.55;;;;;;;;;;5061870;28;20396;-77
2022/12/02 13:03:14;;;;;;;57.67;21.33;;;;;;;;;;5073951;28;20051;-77
2022/12/02 13:05:40;;;;;;;59.60;21.13;;;;;;;;;;5059471;28;20040;-77
2022/12/02 13:08:06;;;;;;;57.08;20.92;;;;;;;;;;5057131;28;20131;-77
2022/12/02 13:10:32;;;;;;;57.47;22.40;;;;;;;;;;5057777;28;20500;-77
2022/12/02 13:12:58;;;;;;;59.75;21.77;;;;;;;;;;5054005;28;20482;-78
2022/12/02 13:15:25;;;;;;;60.78;21.35;;;;;;;;;;5070449;28;20442;-77
2022/12/02 13:17:51;;;;;;;63.20;22.45;;;;;;;;;;5072736;28;20069;-77
2022/12/02 13:20:17;;;;;;;58.80;21.65;;;;;;;;;;5073716;28;20109;-77
2022/12/02 13:22:43;;;;;;;57.78;21.50;;;;;;;;;;5071752;28;20055;-78
2022/12/02 13:25:10;;;;;;;61.58;22.50;;;;;;;;;;5061245;28;20040;-77
2022/12/02 13:27:36;;;;;;;57.58;19.77;;;;;;;;;;5073403;28;20045;-79
2022/12/02 13:30:03;;;;;;;58.88;22.42;;;;;;;;;;5053790;28;20076;-77
2022/12/02 13:32:29;;;;;;;56.67;21.58;;;;;;;;;;5053642;28;20045;-79
2022/12/02 13:34:55;;;;;;;56.53;21.35;;;;;;;;;;5056902;28;20064;-77
2022/12/02 13:37:21;;;;;;;60.80;23.75;;;;;;;;;;5063757;28;20036;-78
2022/12/02 13:39:47;;;;;;;58.92;22.33;;;;;;;;;;5068822;28;20048;-77
2022/12/02 13:42:13;;;;;;;63.17;23.52;;;;;;;;;;5065461;28;20041;-78
2022/12/02 13:44:39;;;;;;;59.50;22.80;;;;;;;;;;5067621;28;20052;-78
2022/12/02 13:47:05;;;;;;;61.20;22.55;;;;;;;;;;5031085;28;20383;-78
2022/12/02 13:49:32;;;;;;;63.15;23.02;;;;;;;;;;5091562;28;20056;-78
2022/12/02 13:51:58;;;;;;;60.00;22.70;;;;;;;;;;5072819;28;20044;-78
2022/12/02 13:54:25;;;;;;;55.75;21.70;;;;;;;;;;5073290;28;20093;-78
2022/12/02 13:56:51;;;;;;;54.25;22.38;;;;;;;;;;5073190;28;20040;-78
2022/12/02 13:59:17;;;;;;;56.10;22.25;;;;;;;;;;5073781;28;20041;-78
2022/12/02 14:01:43;;;;;;;60.30;23.30;;;;;;;;;;5073321;28;20541;-78
2022/12/02 14:04:09;;;;;;;60.22;23.60;;;;;;;;;;5067000;28;20470;-78
2022/12/02 14:06:35;;;;;;;61.38;23.77;;;;;;;;;;5053047;28;20043;-78
2022/12/02 14:09:01;;;;;;;61.17;23.42;;;;;;;;;;5040318;28;20048;-79
2022/12/02 14:11:27;;;;;;;62.55;24.58;;;;;;;;;;5045753;28;20045;-78
2022/12/02 14:13:53;;;;;;;63.55;24.42;;;;;;;;;;5068974;28;20052;-78
2022/12/02 14:16:20;;;;;;;62.25;23.52;;;;;;;;;;5056001;28;20079;-78
2022/12/02 14:18:46;;;;;;;62.15;23.67;;;;;;;;;;5058429;28;20044;-78
2022/12/02 14:21:12;;;;;;;63.35;25.60;;;;;;;;;;5072892;28;20047;-79
2022/12/02 14:23:38;;;;;;;61.63;23.42;;;;;;;;;;5073020;28;20041;-78
2022/12/02 14:26:04;;;;;;;67.40;25.65;;;;;;;;;;5057955;28;20041;-78